Time;durP1;ratioP1;P1;durP2;ratioP2;P2;SDS_P1;SDS_P2;PMS_P1;PMS_P2;Temp;Humidity;BMP_temperature;BMP_pressure;BME280_temperature;BME280_humidity;BME280_pressure;Samples;Min_cycle;Max_cycle;Signal;HPM_P1;HPM_P2
2021/08/14 00:00:18;;;;;;;0.70;0.60;;;;;;;15.52;100.00;44486.28;5051301;28;20800;-73
2021/08/14 00:02:45;;;;;;;0.70;0.60;;;;;;;15.57;100.00;42842.69;5050194;28;20428;-74
2021/08/14 00:05:12;;;;;;;0.73;0.73;;;;;;;15.60;100.00;41198.50;5052013;28;20945;-74
2021/08/14 00:07:38;;;;;;;0.70;0.70;;;;;;;15.55;100.00;39219.41;5051214;28;20439;-74
2021/08/14 00:10:08;;;;;;;0.80;0.70;;;;;;;15.46;100.00;37240.09;5052035;28;20425;-74
2021/08/14 00:12:35;;;;;;;1.20;1.10;;;;;;;15.49;100.00;35700.31;5050912;28;20496;-74
2021/08/14 00:15:03;;;;;;;0.90;0.90;;;;;;;15.36;100.00;33741.78;5055666;28;20795;-74
2021/08/14 00:17:32;;;;;;;0.70;0.70;;;;;;;15.28;100.00;31497.78;5055279;28;20431;-74
2021/08/14 00:20:01;;;;;;;0.70;0.67;;;;;;;15.28;100.00;28788.88;5053663;28;20461;-74
2021/08/14 00:22:29;;;;;;;0.70;0.70;;;;;;;15.24;100.00;27224.47;5055920;28;20827;-74
2021/08/14 00:24:56;;;;;;;0.70;0.70;;;;;;;15.21;100.00;25349.31;5054745;28;20424;-74
2021/08/14 00:27:23;;;;;;;0.70;0.70;;;;;;;15.21;100.00;23463.97;5054347;28;20830;-74
2021/08/14 00:29:53;;;;;;;1.00;0.90;;;;;;;15.15;100.00;21753.50;5054835;28;20429;-73
2021/08/14 00:32:20;;;;;;;0.70;0.70;;;;;;;15.10;100.00;20098.47;5054442;28;20484;-74
2021/08/14 00:34:49;;;;;;;0.70;0.60;;;;;;;15.10;100.00;18387.47;5029186;28;20450;-74
2021/08/14 00:37:16;;;;;;;0.80;0.70;;;;;;;15.08;100.00;16028.44;5035645;28;20433;-74
2021/08/14 00:39:42;;;;;;;0.70;0.70;;;;;;;15.03;100.00;13759.78;5017719;28;20485;-73
2021/08/14 00:42:11;;;;;;;6.53;1.33;;;;;;;15.05;100.00;11770.13;5045753;28;20487;-74
2021/08/14 00:44:38;;;;;;;0.70;0.70;;;;;;;15.15;100.00;10129.44;5055420;28;20472;-74
2021/08/14 00:47:06;;;;;;;0.70;0.60;;;;;;;15.20;100.00;8775.84;5055265;28;20478;-73
2021/08/14 00:49:33;;;;;;;0.70;0.70;;;;;;;15.22;100.00;7841.97;5053611;28;20428;-73
2021/08/14 00:52:25;;;;;;;0.80;0.80;;;;;;;15.15;100.00;6502.13;5036081;28;20432;-73
2021/08/14 00:54:52;;;;;;;0.80;0.70;;;;;;;15.12;100.00;6089.50;5046552;28;20502;-73
2021/08/14 00:57:19;;;;;;;0.70;0.70;;;;;;;15.16;100.00;5342.38;5059613;28;20424;-73
2021/08/14 00:59:49;;;;;;;0.70;0.60;;;;;;;15.13;100.00;4365.56;5038517;28;20468;-73
2021/08/14 01:02:17;;;;;;;0.70;0.67;;;;;;;15.02;100.00;3715.91;5052475;28;20444;-73
2021/08/14 01:04:46;;;;;;;0.80;0.80;;;;;;;15.02;100.00;3383.00;5037039;28;20827;-73
2021/08/14 01:07:18;;;;;;;1.80;1.37;;;;;;;15.03;100.00;2669.06;5053377;28;20543;-73
2021/08/14 01:09:47;;;;;;;0.80;0.77;;;;;;;14.94;100.00;1774.09;5053223;28;20456;-74
2021/08/14 01:12:16;;;;;;;0.80;0.70;;;;;;;14.86;100.00;912.59;5053819;28;20413;-73
2021/08/14 01:14:44;;;;;;;0.70;0.70;;;;;;;14.82;100.00;323.41;5053379;28;20756;-73
2021/08/14 01:17:16;;;;;;;0.80;0.80;;;;;;;14.79;100.00;-504.06;5055059;28;20912;-73
2021/08/14 01:19:47;;;;;;;0.70;0.60;;;;;;;14.73;100.00;-1336.41;5054438;28;20418;-73
2021/08/14 01:22:16;;;;;;;0.80;0.80;;;;;;;14.74;100.00;-2203.69;5054301;28;20401;-73
2021/08/14 01:24:44;;;;;;;0.70;0.70;;;;;;;14.69;100.00;-3022.72;5046947;28;20493;-72
2021/08/14 01:27:13;;;;;;;0.80;0.80;;;;;;;14.70;100.00;-4312.72;5050236;28;20475;-73
2021/08/14 01:29:40;;;;;;;0.80;0.73;;;;;;;14.63;100.00;-6354.16;5053764;28;20434;-73
2021/08/14 01:32:08;;;;;;;0.77;0.70;;;;;;;14.63;100.00;-7837.56;5054602;28;20436;-73
2021/08/14 01:34:37;;;;;;;0.73;0.70;;;;;;;14.65;100.00;-9290.13;5036644;28;20433;-73
2021/08/14 01:37:05;;;;;;;0.70;0.70;;;;;;;14.62;100.00;-10149.91;5036613;28;20452;-73
2021/08/14 01:39:32;;;;;;;0.70;0.70;;;;;;;14.53;100.00;-11787.16;5054217;28;20448;-73
2021/08/14 01:42:02;;;;;;;0.70;0.60;;;;;;;14.56;100.00;-12831.22;5051677;28;20471;-73
2021/08/14 01:44:53;;;;;;;0.80;0.70;;;;;;;14.66;100.00;-13388.63;5043675;28;20434;-73
2021/08/14 01:47:20;;;;;;;0.70;0.60;;;;;;;14.69;100.00;-13512.91;5054218;28;20439;-73
2021/08/14 01:49:48;;;;;;;0.80;0.70;;;;;;;14.74;100.00;-13852.16;5052763;28;20469;-73
2021/08/14 01:52:37;;;;;;;0.70;0.60;;;;;;;14.72;100.00;-14387.53;5054000;28;20503;-73
2021/08/14 01:55:28;;;;;;;0.90;0.90;;;;;;;14.68;100.00;-14740.41;5052991;28;20419;-73
2021/08/14 01:57:55;;;;;;;0.80;0.70;;;;;;;14.65;100.00;-15027.88;5054127;28;20420;-73
2021/08/14 02:00:24;;;;;;;0.73;0.73;;;;;;;14.66;100.00;-15255.25;5038438;28;20465;-73
2021/08/14 02:02:51;;;;;;;0.70;0.63;;;;;;;14.66;100.00;-15502.72;5032311;28;20422;-73
2021/08/14 02:05:18;;;;;;;1.57;1.47;;;;;;;14.62;100.00;-15767.16;5034893;28;20940;-73
2021/08/14 02:07:45;;;;;;;0.80;0.80;;;;;;;14.65;100.00;-16050.41;5053496;28;20448;-73
2021/08/14 02:10:12;;;;;;;0.80;0.70;;;;;;;14.68;100.00;-16230.22;5053385;28;20452;-73
2021/08/14 02:12:39;;;;;;;0.80;0.80;;;;;;;14.70;100.00;-16407.34;5052901;28;20502;-73
2021/08/14 02:15:08;;;;;;;0.70;0.70;;;;;;;14.71;100.00;-16538.91;5052523;28;20467;-73
2021/08/14 02:17:36;;;;;;;0.70;0.60;;;;;;;14.70;100.00;-16614.44;5040947;28;20982;-73
2021/08/14 02:20:04;;;;;;;0.70;0.60;;;;;;;14.66;100.00;-16641.31;5035597;28;20489;-73
2021/08/14 02:22:32;;;;;;;1.27;0.90;;;;;;;14.68;100.00;-17058.19;5052177;28;20519;-73
2021/08/14 02:24:59;;;;;;;0.70;0.60;;;;;;;14.77;100.00;-17019.59;5035846;28;20490;-73
2021/08/14 02:27:30;;;;;;;0.73;0.70;;;;;;;14.89;100.00;-16772.13;5034218;28;20460;-74
2021/08/14 02:29:57;;;;;;;0.70;0.60;;;;;;;14.86;100.00;-16433.25;5041611;28;20432;-73
2021/08/14 02:32:25;;;;;;;0.70;0.60;;;;;;;14.93;100.00;-16065.81;5029533;28;20479;-73
2021/08/14 02:34:53;;;;;;;0.80;0.80;;;;;;;14.97;100.00;-15821.69;5031889;28;20461;-73
2021/08/14 02:37:20;;;;;;;0.70;0.63;;;;;;;14.92;100.00;-15729.78;5048359;28;20533;-73
2021/08/14 02:39:47;;;;;;;0.70;0.70;;;;;;;14.95;100.00;-15823.81;5053458;28;20432;-72
2021/08/14 02:42:14;;;;;;;0.70;0.60;;;;;;;14.86;100.00;-15895.34;5053197;28;20501;-73
2021/08/14 02:44:41;;;;;;;0.70;0.70;;;;;;;14.84;100.00;-15945.50;5053233;28;20482;-73
2021/08/14 02:47:08;;;;;;;1.73;1.17;;;;;;;14.77;100.00;-15999.69;5051980;28;20796;-73
2021/08/14 02:49:35;;;;;;;0.80;0.77;;;;;;;14.83;100.00;-15859.44;5052416;28;20434;-73
2021/08/14 02:52:05;;;;;;;0.70;0.60;;;;;;;14.89;100.00;-15810.06;5051835;28;20427;-73
2021/08/14 02:54:32;;;;;;;0.73;0.73;;;;;;;14.92;100.00;-15785.28;5051451;28;20467;-73
2021/08/14 02:56:59;;;;;;;0.93;0.93;;;;;;;14.88;100.00;-15754.31;5053312;28;20425;-72
2021/08/14 02:59:26;;;;;;;0.80;0.70;;;;;;;14.90;100.00;-15681.44;5051402;28;20489;-73
2021/08/14 03:01:53;;;;;;;0.93;0.93;;;;;;;14.81;100.00;-15752.97;5051601;28;20818;-73
2021/08/14 03:04:20;;;;;;;1.00;1.00;;;;;;;14.82;100.00;-15642.03;5052861;28;20443;-73
2021/08/14 03:06:55;;;;;;;0.70;0.63;;;;;;;14.81;100.00;-15672.16;5051498;28;20458;-73
2021/08/14 03:09:24;;;;;;;0.70;0.70;;;;;;;14.82;100.00;-15611.75;5032952;28;20513;-73
2021/08/14 03:11:51;;;;;;;0.70;0.70;;;;;;;14.84;100.00;-15723.25;5032922;28;20461;-74
2021/08/14 03:14:19;;;;;;;0.70;0.70;;;;;;;14.93;100.00;-15798.09;5031829;28;20482;-73
2021/08/14 03:16:46;;;;;;;0.70;0.67;;;;;;;14.87;100.00;-15809.69;5014995;28;20956;-73
2021/08/14 03:19:14;;;;;;;0.73;0.70;;;;;;;14.84;100.00;-15897.50;5037342;28;20809;-73
2021/08/14 03:21:41;;;;;;;0.70;0.70;;;;;;;14.87;100.00;-15870.28;5037955;28;20497;-73
2021/08/14 03:24:08;;;;;;;0.80;0.80;;;;;;;14.91;100.00;-15828.13;5033999;28;20461;-72
2021/08/14 03:26:36;;;;;;;0.70;0.60;;;;;;;14.90;100.00;-15969.28;5032959;28;20448;-73
2021/08/14 03:29:03;;;;;;;0.80;0.80;;;;;;;14.88;100.00;-16044.66;5032887;28;20614;-73
2021/08/14 03:31:30;;;;;;;0.70;0.60;;;;;;;14.91;100.00;-15956.84;5045136;28;20527;-73
2021/08/14 03:33:58;;;;;;;0.70;0.70;;;;;;;14.83;100.00;-15892.16;5052524;28;20427;-72
2021/08/14 03:36:25;;;;;;;0.70;0.60;;;;;;;14.85;100.00;-15844.66;5052685;28;20499;-72
2021/08/14 03:38:52;;;;;;;0.80;0.70;;;;;;;14.86;100.00;-15829.69;5052748;28;20462;-72
2021/08/14 03:41:18;;;;;;;0.80;0.80;;;;;;;14.92;100.00;-15876.28;5045154;28;20468;-73
2021/08/14 03:43:47;;;;;;;0.80;0.80;;;;;;;14.89;100.00;-15976.75;5047454;28;20431;-73
2021/08/14 03:46:14;;;;;;;1.00;0.90;;;;;;;14.86;100.00;-15935.78;5052339;28;20420;-73
2021/08/14 03:48:41;;;;;;;0.70;0.70;;;;;;;14.79;100.00;-16002.59;5052243;28;20437;-72
2021/08/14 03:51:08;;;;;;;0.80;0.73;;;;;;;14.87;100.00;-16087.50;5056498;28;20417;-73
2021/08/14 03:53:35;;;;;;;0.90;0.90;;;;;;;14.85;100.00;-16172.97;5056693;28;20447;-73
2021/08/14 03:56:02;;;;;;;0.70;0.70;;;;;;;14.77;100.00;-16257.25;5055113;28;20428;-73
2021/08/14 03:58:32;;;;;;;1.10;0.97;;;;;;;14.81;100.00;-16321.16;5055457;28;20870;-73
2021/08/14 04:01:03;;;;;;;0.70;0.70;;;;;;;14.87;100.00;-16504.06;5054461;28;20468;-73
2021/08/14 04:03:30;;;;;;;0.70;0.70;;;;;;;14.87;100.00;-16612.63;5053558;28;20481;-73
2021/08/14 04:05:57;;;;;;;0.70;0.70;;;;;;;14.91;100.00;-16802.84;5056154;28;20458;-73
2021/08/14 04:08:24;;;;;;;0.70;0.70;;;;;;;14.95;100.00;-16738.00;5056105;28;20557;-72
2021/08/14 04:10:52;;;;;;;0.90;0.90;;;;;;;14.94;100.00;-16543.44;5053825;28;20522;-73
2021/08/14 04:13:19;;;;;;;0.70;0.70;;;;;;;14.91;100.00;-16219.59;5056040;28;20424;-73
2021/08/14 04:15:46;;;;;;;0.70;0.60;;;;;;;14.87;100.00;-15961.22;5055147;28;20472;-72
2021/08/14 04:18:15;;;;;;;0.70;0.70;;;;;;;14.84;100.00;-15690.31;5055843;28;20436;-73
2021/08/14 04:20:41;;;;;;;0.80;0.80;;;;;;;14.94;100.00;-15528.09;5054640;28;20431;-73
2021/08/14 04:23:08;;;;;;;0.70;0.70;;;;;;;14.96;100.00;-15371.72;5053486;28;20490;-73
2021/08/14 04:25:35;;;;;;;0.70;0.60;;;;;;;15.02;100.00;-15150.38;5034951;28;20444;-73
2021/08/14 04:28:02;;;;;;;0.80;0.70;;;;;;;15.03;100.00;-14928.28;5055745;28;20854;-73
2021/08/14 04:30:30;;;;;;;0.80;0.70;;;;;;;14.98;100.00;-14844.03;5055749;28;20453;-73
2021/08/14 04:32:58;;;;;;;0.70;0.70;;;;;;;14.97;100.00;-14800.97;5053501;28;20801;-72
2021/08/14 04:35:26;;;;;;;0.73;0.70;;;;;;;14.97;100.00;-14702.44;5055413;28;20435;-72
2021/08/14 04:37:53;;;;;;;0.70;0.70;;;;;;;14.97;100.00;-14677.06;5055777;28;20526;-72
2021/08/14 04:40:20;;;;;;;0.70;0.70;;;;;;;14.94;100.00;-14689.19;5055035;28;20460;-73
2021/08/14 04:42:47;;;;;;;0.90;0.90;;;;;;;14.90;100.00;-14612.72;5055643;28;20451;-72
2021/08/14 04:45:15;;;;;;;0.80;0.70;;;;;;;14.89;100.00;-14557.03;5055669;28;20504;-73
2021/08/14 04:47:43;;;;;;;0.80;0.80;;;;;;;14.89;100.00;-14486.28;5055127;28;20865;-73
2021/08/14 04:50:11;;;;;;;0.70;0.60;;;;;;;14.91;100.00;-14431.03;5052634;28;20817;-72
2021/08/14 04:52:39;;;;;;;0.70;0.70;;;;;;;14.90;100.00;-14435.91;5055226;28;21012;-73
2021/08/14 04:55:07;;;;;;;0.80;0.70;;;;;;;14.93;100.00;-14479.38;5037603;28;20511;-73
2021/08/14 04:57:34;;;;;;;0.70;0.70;;;;;;;14.91;100.00;-14570.00;5052776;28;20461;-73
2021/08/14 05:00:02;;;;;;;0.70;0.67;;;;;;;14.98;100.00;-14647.00;5054334;28;20436;-73
2021/08/14 05:02:30;;;;;;;0.70;0.67;;;;;;;15.00;100.00;-15018.72;5052148;28;20500;-72
2021/08/14 05:04:57;;;;;;;0.90;0.90;;;;;;;15.09;100.00;-15181.97;5055023;28;20413;-72
2021/08/14 05:07:24;;;;;;;0.93;0.93;;;;;;;15.08;100.00;-15330.97;5053588;28;21009;-72
2021/08/14 05:09:53;;;;;;;0.80;0.80;;;;;;;15.10;100.00;-15369.13;5043841;28;20801;-72
2021/08/14 05:12:22;;;;;;;0.70;0.70;;;;;;;15.12;100.00;-15379.69;5035360;28;20421;-72
2021/08/14 05:14:49;;;;;;;0.80;0.70;;;;;;;15.14;100.00;-15486.19;5042671;28;20445;-72
2021/08/14 05:17:16;;;;;;;0.70;0.63;;;;;;;15.20;100.00;-15628.72;5040805;28;20494;-72
2021/08/14 05:19:42;;;;;;;3.00;0.97;;;;;;;15.29;100.00;-15539.31;5053357;28;20520;-72
2021/08/14 05:22:10;;;;;;;0.90;0.90;;;;;;;15.35;100.00;-15356.00;5054516;28;20464;-72
2021/08/14 05:24:37;;;;;;;0.70;0.60;;;;;;;15.40;100.00;-15142.00;5054942;28;20528;-72
2021/08/14 05:27:06;;;;;;;0.70;0.70;;;;;;;15.50;100.00;-15060.16;5054823;28;20424;-72
2021/08/14 05:29:33;;;;;;;0.70;0.60;;;;;;;15.62;100.00;-14978.81;5053487;28;20438;-72
2021/08/14 05:32:00;;;;;;;0.70;0.70;;;;;;;15.74;100.00;-14996.09;5046105;28;20804;-73
2021/08/14 05:34:27;;;;;;;5.90;1.33;;;;;;;15.91;100.00;-14918.09;5054695;28;21025;-73
2021/08/14 05:36:57;;;;;;;1.17;1.07;;;;;;;16.07;100.00;-15006.84;5037101;28;20484;-73
2021/08/14 05:39:24;;;;;;;0.70;0.70;;;;;;;16.17;100.00;-14912.31;5052617;28;20470;-73
2021/08/14 05:41:52;;;;;;;0.80;0.73;;;;;;;16.27;100.00;-14749.47;5053192;28;20465;-73
2021/08/14 05:44:21;;;;;;;0.70;0.70;;;;;;;16.42;100.00;-14455.59;5053583;28;20508;-73
2021/08/14 05:46:48;;;;;;;0.70;0.60;;;;;;;16.62;100.00;-13759.44;5051833;28;20949;-73
2021/08/14 05:49:15;;;;;;;0.70;0.70;;;;;;;16.67;100.00;-13326.78;5051895;28;20782;-73
2021/08/14 05:51:43;;;;;;;1.53;1.43;;;;;;;16.79;100.00;-12570.31;5036663;28;20481;-73
2021/08/14 05:54:14;;;;;;;0.70;0.60;;;;;;;17.08;100.00;-11731.75;5054180;28;20446;-73
2021/08/14 05:56:41;;;;;;;0.70;0.63;;;;;;;17.33;100.00;-10688.63;5053107;28;20451;-73
2021/08/14 05:59:09;;;;;;;1.00;0.90;;;;;;;17.54;100.00;-9458.41;5036392;28;20437;-73
2021/08/14 06:01:38;;;;;;;0.70;0.60;;;;;;;17.83;100.00;-8039.19;5051730;28;20558;-72
2021/08/14 06:04:05;;;;;;;1.30;1.10;;;;;;;18.02;100.00;-6548.91;5053392;28;20429;-73
2021/08/14 06:06:32;;;;;;;0.70;0.70;;;;;;;18.07;100.00;-5176.59;5052486;28;20527;-74
2021/08/14 06:08:59;;;;;;;0.80;0.80;;;;;;;18.30;100.00;-3183.88;5036082;28;20459;-73
2021/08/14 06:11:26;;;;;;;0.77;0.77;;;;;;;18.45;100.00;-1533.38;5052861;28;20526;-73
2021/08/14 06:13:53;;;;;;;0.80;0.80;;;;;;;18.47;100.00;-122.06;5053734;28;20765;-73
2021/08/14 06:16:20;;;;;;;0.70;0.70;;;;;;;18.48;100.00;1151.97;5051620;28;20538;-73
2021/08/14 06:18:48;;;;;;;0.73;0.70;;;;;;;18.48;100.00;2357.47;5049786;28;20436;-74
2021/08/14 06:21:16;;;;;;;0.70;0.67;;;;;;;18.57;100.00;4144.69;5044866;28;20441;-73
2021/08/14 06:23:43;;;;;;;1.20;1.10;;;;;;;18.61;100.00;5610.34;5053949;28;21012;-74
2021/08/14 06:26:10;;;;;;;0.70;0.60;;;;;;;18.61;100.00;6474.81;5053535;28;20446;-74
2021/08/14 06:28:37;;;;;;;1.00;0.80;;;;;;;18.69;100.00;8272.84;5053591;28;20768;-73
2021/08/14 06:31:04;;;;;;;0.70;0.70;;;;;;;18.67;100.00;9322.13;5041935;28;20432;-74
2021/08/14 06:33:32;;;;;;;0.70;0.67;;;;;;;18.63;100.00;10294.38;5033163;28;20416;-73
2021/08/14 06:36:03;;;;;;;1.33;1.23;;;;;;;18.61;100.00;11569.59;5033655;28;20833;-74
2021/08/14 06:38:30;;;;;;;0.70;0.60;;;;;;;18.70;100.00;12140.69;5033303;28;21033;-73
2021/08/14 06:40:57;;;;;;;0.70;0.60;;;;;;;18.72;100.00;12489.97;5032315;28;20418;-73
2021/08/14 06:43:24;;;;;;;0.70;0.70;;;;;;;18.97;100.00;12891.47;5039521;28;20528;-74
2021/08/14 06:45:50;;;;;;;0.70;0.67;;;;;;;19.08;100.00;13243.44;5051767;28;20454;-74
2021/08/14 06:48:18;;;;;;;0.70;0.67;;;;;;;19.06;100.00;11906.75;5035671;28;20457;-74
2021/08/14 06:50:45;;;;;;;0.70;0.60;;;;;;;19.19;100.00;9461.53;5052031;28;20537;-73
2021/08/14 06:53:17;;;;;;;0.70;0.70;;;;;;;18.94;100.00;5029.69;5051996;28;20466;-74
2021/08/14 06:55:44;;;;;;;0.90;0.90;;;;;;;18.93;100.00;627.00;5051676;28;20425;-74
2021/08/14 06:58:11;;;;;;;0.70;0.67;;;;;;;19.15;100.00;-7215.91;5034516;28;20476;-74
2021/08/14 07:00:38;;;;;;;1.63;1.53;;;;;;;19.20;100.00;-18899.25;5039462;28;20409;-74
2021/08/14 07:03:06;;;;;;;0.80;0.70;;;;;;;19.37;100.00;-21206.66;5047607;28;20468;-74
2021/08/14 07:05:59;;;;;;;0.70;0.63;;;;;;;19.54;100.00;-21211.31;5047105;28;20470;-73
2021/08/14 07:08:30;;;;;;;0.80;0.77;;;;;;;19.54;100.00;-21211.31;5043791;28;20438;-74
2021/08/14 07:10:57;;;;;;;0.70;0.67;;;;;;;19.52;100.00;-21210.75;5042843;28;20439;-73
2021/08/14 07:13:24;;;;;;;0.80;0.77;;;;;;;19.62;100.00;-21213.50;5040310;28;20978;-74
2021/08/14 07:15:51;;;;;;;1.13;0.90;;;;;;;19.82;100.00;-21218.84;5053010;28;20468;-73
2021/08/14 07:18:18;;;;;;;0.80;0.70;;;;;;;20.12;100.00;-21226.91;5050826;28;20443;-73
2021/08/14 07:20:48;;;;;;;0.90;0.90;;;;;;;19.97;100.00;-21222.78;5038820;28;21813;-74
2021/08/14 07:23:16;;;;;;;0.70;0.60;;;;;;;20.06;100.00;-21225.13;5053249;28;20511;-74
2021/08/14 07:25:44;;;;;;;1.00;1.00;;;;;;;20.12;100.00;-21226.91;5057402;28;20416;-73
2021/08/14 07:28:11;;;;;;;0.80;0.70;;;;;;;20.21;100.00;-21229.34;5056589;28;20527;-74
2021/08/14 07:30:44;;;;;;;0.70;0.60;;;;;;;20.30;100.00;-21231.53;5056003;28;20902;-74
2021/08/14 07:33:11;;;;;;;0.70;0.60;;;;;;;20.45;100.00;-21235.78;5056774;28;20783;-73
2021/08/14 07:35:37;;;;;;;0.70;0.70;;;;;;;20.49;100.00;-21236.72;5055479;28;20412;-73
2021/08/14 07:38:04;;;;;;;0.80;0.70;;;;;;;20.78;100.00;-21244.38;5054692;28;20489;-74
2021/08/14 07:40:31;;;;;;;0.70;0.70;;;;;;;20.77;100.00;-21244.25;5040830;28;20425;-74
2021/08/14 07:42:59;;;;;;;1.00;0.87;;;;;;;20.86;100.00;-21246.56;5037702;28;21043;-73
2021/08/14 07:45:27;;;;;;;1.07;0.97;;;;;;;21.11;100.00;-21253.38;5036660;28;20399;-73
2021/08/14 07:47:53;;;;;;;0.80;0.70;;;;;;;21.26;100.00;-21257.19;5045590;28;20489;-73
2021/08/14 07:50:23;;;;;;;0.70;0.70;;;;;;;21.52;100.00;-21264.28;5052558;28;20466;-74
2021/08/14 07:52:52;;;;;;;0.80;0.70;;;;;;;21.62;100.00;-21266.88;5054869;28;20497;-73
2021/08/14 07:55:20;;;;;;;0.70;0.70;;;;;;;21.95;100.00;-21275.75;5054575;28;20424;-73
2021/08/14 07:57:48;;;;;;;1.10;1.00;;;;;;;22.15;100.00;-21281.19;5054832;28;21020;-74
2021/08/14 08:00:20;;;;;;;0.70;0.60;;;;;;;22.43;100.00;-21288.56;5053520;28;20413;-74
2021/08/14 08:02:50;;;;;;;0.80;0.80;;;;;;;22.67;100.00;-21295.09;5054123;28;20471;-73
2021/08/14 08:05:19;;;;;;;0.80;0.70;;;;;;;22.77;100.00;-21297.66;5055860;28;20420;-73
2021/08/14 08:07:46;;;;;;;0.80;0.70;;;;;;;22.97;100.00;-21302.97;5056641;28;20444;-73
2021/08/14 08:10:15;;;;;;;0.80;0.80;;;;;;;22.96;100.00;-21302.72;5058137;28;20395;-73
2021/08/14 08:12:42;;;;;;;0.80;0.70;;;;;;;23.04;100.00;-21304.88;5056093;28;20435;-74
2021/08/14 08:15:11;;;;;;;0.73;0.70;;;;;;;23.28;100.00;-21311.13;5048591;28;20956;-73
2021/08/14 08:17:42;;;;;;;1.83;0.90;;;;;;;23.11;100.00;-21306.78;5043506;28;20460;-74
2021/08/14 08:20:11;;;;;;;1.07;0.87;;;;;;;23.42;100.00;-21314.94;5044000;28;20821;-74
2021/08/14 08:22:39;;;;;;;0.80;0.80;;;;;;;23.51;100.00;-21317.25;5034823;28;20549;-73
2021/08/14 08:25:07;;;;;;;0.80;0.60;;;;;;;23.52;100.00;-21317.66;5036405;28;20439;-74
2021/08/14 08:27:36;;;;;;;0.80;0.77;;;;;;;24.01;100.00;-21330.59;5035991;28;20388;-74
2021/08/14 08:30:04;;;;;;;0.80;0.60;;;;;;;24.16;100.00;-21334.53;5034782;28;20782;-72
2021/08/14 08:32:31;;;;;;;0.80;0.70;;;;;;;24.09;100.00;-21332.88;5038369;28;20392;-73
2021/08/14 08:34:59;;;;;;;0.70;0.60;;;;;;;24.04;100.00;-21331.53;5054373;28;20413;-73
2021/08/14 08:37:27;;;;;;;0.90;0.70;;;;;;;24.19;100.00;-21335.31;5054387;28;20438;-74
2021/08/14 08:39:54;;;;;;;0.70;0.53;;;;;;;24.45;100.00;-21342.41;5055354;28;20436;-74
2021/08/14 08:42:21;;;;;;;0.80;0.60;;;;;;;25.02;100.00;-21357.47;5055457;28;20488;-73
2021/08/14 08:44:48;;;;;;;0.70;0.60;;;;;;;25.16;100.00;-21361.13;5052840;28;20438;-73
2021/08/14 08:47:17;;;;;;;0.80;0.60;;;;;;;25.67;100.00;-21374.69;5054149;28;20455;-73
2021/08/14 08:49:52;;;;;;;1.00;0.80;;;;;;;25.82;100.00;-21378.75;5053038;28;20447;-73
2021/08/14 08:52:22;;;;;;;0.80;0.60;;;;;;;26.30;100.00;-21391.47;5055395;28;20416;-73
2021/08/14 08:54:51;;;;;;;0.80;0.60;;;;;;;26.63;100.00;-21400.13;5054066;28;20435;-73
2021/08/14 08:57:18;;;;;;;0.70;0.60;;;;;;;27.18;100.00;-21414.75;5055241;28;20966;-73
2021/08/14 08:59:46;;;;;;;0.70;0.50;;;;;;;27.19;100.00;-21415.00;5039846;28;20965;-74
2021/08/14 09:02:21;;;;;;;0.70;0.50;;;;;;;28.13;100.00;-21440.00;5045720;28;20858;-74
2021/08/14 09:05:05;;;;;;;0.70;0.50;;;;;;;28.66;100.00;-21453.91;5049287;28;20436;-73
2021/08/14 09:07:34;;;;;;;0.70;0.50;;;;;;;29.12;100.00;-21466.03;5050354;28;20440;-70
2021/08/14 09:10:04;;;;;;;0.90;0.67;;;;;;;30.45;100.00;-21501.03;5055124;28;20419;-73
2021/08/14 09:12:38;;;;;;;0.80;0.70;;;;;;;28.78;100.00;-21457.13;5054065;28;20909;-74
2021/08/14 09:15:07;;;;;;;0.90;0.50;;;;;;;30.51;100.00;-21502.66;5055254;28;20412;-74
2021/08/14 09:17:34;;;;;;;0.70;0.50;;;;;;;31.10;100.00;-21518.25;5055007;28;20523;-72
2021/08/14 09:20:07;;;;;;;0.80;0.50;;;;;;;30.38;100.00;-21499.16;5054211;28;20978;-74
2021/08/14 09:22:36;;;;;;;0.80;0.60;;;;;;;31.05;100.00;-21516.91;5053452;28;21029;-73
2021/08/14 09:25:20;;;;;;;1.10;0.80;;;;;;;30.55;100.00;-21503.72;5053028;28;20505;-75
2021/08/14 09:27:55;;;;;;;0.80;0.50;;;;;;;32.04;100.00;-21542.97;5038780;28;20425;-70
2021/08/14 09:30:51;;;;;;;0.87;0.67;;;;;;;31.59;100.00;-21531.00;5034996;28;20425;-74
2021/08/14 09:33:21;;;;;;;0.80;0.50;;;;;;;32.02;100.00;-21542.41;5048246;28;20447;-74
2021/08/14 09:35:55;;;;;;;0.80;0.60;;;;;;;31.08;100.00;-21517.72;5053828;28;20419;-74
2021/08/14 09:38:36;;;;;;;0.80;0.50;;;;;;;31.60;100.00;-21531.41;5053154;28;20443;-73
2021/08/14 09:41:07;;;;;;;0.80;0.50;;;;;;;32.08;100.00;-21544.03;5053751;28;20420;-74
2021/08/14 09:43:35;;;;;;;0.80;0.60;;;;;;;31.64;100.00;-21532.50;5053763;28;20505;-73
2021/08/14 09:46:03;;;;;;;0.90;0.70;;;;;;;32.37;100.00;-21551.66;5050290;28;20444;-73
2021/08/14 09:48:31;;;;;;;0.90;0.60;;;;;;;32.27;100.00;-21548.84;5053505;28;20454;-73
2021/08/14 09:50:59;;;;;;;0.80;0.50;;;;;;;31.89;100.00;-21539.06;5054224;28;20451;-72
2021/08/14 09:53:31;;;;;;;1.00;0.87;;;;;;;31.91;100.00;-21539.59;5054226;28;20440;-73
2021/08/14 09:56:07;;;;;;;1.30;0.83;;;;;;;32.74;100.00;-21561.31;5053274;28;20851;-73
2021/08/14 09:58:35;;;;;;;0.80;0.50;;;;;;;31.52;100.00;-21529.28;5053060;28;20453;-72
2021/08/14 10:01:04;;;;;;;2.90;0.80;;;;;;;30.80;100.00;-21510.47;5053092;28;20432;-73
2021/08/14 10:03:32;;;;;;;1.10;0.80;;;;;;;31.55;100.00;-21529.94;5052796;28;20471;-72
2021/08/14 10:06:02;;;;;;;0.80;0.50;;;;;;;32.17;100.00;-21546.44;5052923;28;20772;-72
2021/08/14 10:08:31;;;;;;;1.10;0.73;;;;;;;31.90;100.00;-21539.34;5052463;28;20496;-72
2021/08/14 10:10:59;;;;;;;0.80;0.50;;;;;;;31.01;100.00;-21515.84;5050639;28;20423;-72
2021/08/14 10:13:29;;;;;;;0.80;0.50;;;;;;;30.66;100.00;-21506.69;5053921;28;20431;-73
2021/08/14 10:15:56;;;;;;;1.00;0.87;;;;;;;31.16;100.00;-21519.72;5034235;28;20431;-73
2021/08/14 10:18:24;;;;;;;0.80;0.50;;;;;;;31.83;100.00;-21537.44;5053969;28;20435;-72
2021/08/14 10:20:51;;;;;;;0.80;0.50;;;;;;;30.02;100.00;-21489.75;5035931;28;20436;-75
2021/08/14 10:23:21;;;;;;;0.80;0.57;;;;;;;32.01;100.00;-21542.03;5052498;28;20471;-73
2021/08/14 10:25:59;;;;;;;1.00;0.60;;;;;;;31.17;100.00;-21520.13;5052737;28;20423;-72
2021/08/14 10:28:44;;;;;;;0.80;0.60;;;;;;;31.38;100.00;-21525.50;5052871;28;20765;-72
2021/08/14 10:31:45;;;;;;;0.80;0.50;;;;;;;31.77;100.00;-21535.97;5049758;28;20463;-73
2021/08/14 10:34:28;;;;;;;0.80;0.60;;;;;;;32.74;100.00;-21561.31;5053096;28;20418;-72
2021/08/14 10:36:56;;;;;;;0.80;0.60;;;;;;;31.76;100.00;-21535.56;5052285;28;20431;-74
2021/08/14 10:39:24;;;;;;;0.80;0.50;;;;;;;31.73;100.00;-21534.91;5053835;28;20542;-72
2021/08/14 10:41:55;;;;;;;0.80;0.60;;;;;;;31.30;100.00;-21523.50;5052095;28;20440;-73
2021/08/14 10:44:40;;;;;;;0.80;0.50;;;;;;;32.87;100.00;-21564.81;5051824;28;20862;-72
2021/08/14 10:47:41;;;;;;;0.80;0.53;;;;;;;32.80;100.00;-21562.78;5053192;28;20532;-73
2021/08/14 10:50:09;;;;;;;0.80;0.50;;;;;;;32.86;100.00;-21564.41;5008615;28;20440;-72
2021/08/14 10:52:37;;;;;;;1.00;0.90;;;;;;;31.36;100.00;-21524.97;5052571;28;20762;-72
2021/08/14 10:55:13;;;;;;;0.80;0.50;;;;;;;30.78;100.00;-21509.78;5053046;28;20927;-74
2021/08/14 10:57:48;;;;;;;0.80;0.50;;;;;;;32.14;100.00;-21545.50;5051286;28;20542;-73
2021/08/14 11:00:17;;;;;;;1.27;1.17;;;;;;;32.67;100.00;-21559.44;5046773;28;20889;-71
2021/08/14 11:03:18;;;;;;;1.27;1.03;;;;;;;33.04;100.00;-21569.22;5036177;28;20490;-72
2021/08/14 11:05:46;;;;;;;0.80;0.60;;;;;;;34.03;100.00;-21595.19;5031511;28;20483;-71
2021/08/14 11:08:29;;;;;;;0.90;0.60;;;;;;;31.73;100.00;-21534.91;5045000;28;20464;-72
2021/08/14 11:10:58;;;;;;;0.80;0.50;;;;;;;32.01;100.00;-21542.16;5053095;28;20409;-72
2021/08/14 11:13:44;;;;;;;0.80;0.60;;;;;;;31.57;100.00;-21530.59;5051804;28;20477;-73
2021/08/14 11:16:50;;;;;;;0.80;0.50;;;;;;;31.97;100.00;-21541.22;5052845;28;20412;-72
2021/08/14 11:19:41;;;;;;;0.80;0.60;;;;;;;31.81;100.00;-21536.78;5052773;28;20431;-73
2021/08/14 11:22:29;;;;;;;0.80;0.50;;;;;;;32.70;100.00;-21560.38;5051059;28;20436;-74
2021/08/14 11:24:59;;;;;;;3.33;0.97;;;;;;;32.10;100.00;-21544.56;5051614;28;20467;-73
2021/08/14 11:27:28;;;;;;;0.80;0.60;;;;;;;32.10;100.00;-21544.56;5052799;28;20948;-71
2021/08/14 11:30:04;;;;;;;1.23;1.13;;;;;;;31.16;100.00;-21519.88;5051924;28;20416;-72